sensor_id;sensor_type;location;lat;lon;timestamp;pressure;altitude;pressure_sealevel;temperature;humidity
70434;BME280;57876;47.792;12.960;2023-09-12T00:00:13;96586.22;;;18.86;66.54
70434;BME280;57876;47.792;12.960;2023-09-12T00:02:38;96574.00;;;18.83;66.28
70434;BME280;57876;47.792;12.960;2023-09-12T00:05:03;96576.03;;;18.86;66.47
70434;BME280;57876;47.792;12.960;2023-09-12T00:07:28;96578.66;;;18.83;66.51
70434;BME280;57876;47.792;12.960;2023-09-12T00:09:53;96579.91;;;18.85;66.46
70434;BME280;57876;47.792;12.960;2023-09-12T00:12:17;96578.66;;;18.83;66.59
70434;BME280;57876;47.792;12.960;2023-09-12T00:14:41;96572.84;;;18.84;66.64
70434;BME280;57876;47.792;12.960;2023-09-12T00:17:06;96574.78;;;18.84;66.55
70434;BME280;57876;47.792;12.960;2023-09-12T00:19:30;96561.41;;;18.82;66.55
70434;BME280;57876;47.792;12.960;2023-09-12T00:21:56;96563.84;;;18.84;66.65
70434;BME280;57876;47.792;12.960;2023-09-12T00:24:21;96563.03;;;18.83;66.49
70434;BME280;57876;47.792;12.960;2023-09-12T00:26:45;96569.31;;;18.84;66.58
70434;BME280;57876;47.792;12.960;2023-09-12T00:29:09;96566.56;;;18.84;66.54
70434;BME280;57876;47.792;12.960;2023-09-12T00:31:34;96564.63;;;18.84;66.65
70434;BME280;57876;47.792;12.960;2023-09-12T00:33:58;96566.09;;;18.82;66.83
70434;BME280;57876;47.792;12.960;2023-09-12T00:36:23;96572.06;;;18.84;66.46
70434;BME280;57876;47.792;12.960;2023-09-12T00:38:47;96563.84;;;18.84;66.72
70434;BME280;57876;47.792;12.960;2023-09-12T00:41:12;96560.63;;;18.82;66.39
70434;BME280;57876;47.792;12.960;2023-09-12T00:43:36;96556.72;;;18.83;66.41
70434;BME280;57876;47.792;12.960;2023-09-12T00:46:03;96559.16;;;18.84;66.58
70434;BME280;57876;47.792;12.960;2023-09-12T00:48:27;96561.88;;;18.84;66.70
70434;BME280;57876;47.792;12.960;2023-09-12T00:50:53;96565.41;;;18.85;66.75
70434;BME280;57876;47.792;12.960;2023-09-12T00:53:20;96559.94;;;18.85;66.76
70434;BME280;57876;47.792;12.960;2023-09-12T00:55:50;96563.84;;;18.84;66.50
70434;BME280;57876;47.792;12.960;2023-09-12T00:58:18;96565.41;;;18.85;66.59
70434;BME280;57876;47.792;12.960;2023-09-12T01:00:45;96563.84;;;18.84;66.54
70434;BME280;57876;47.792;12.960;2023-09-12T01:03:09;96565.41;;;18.85;66.40
70434;BME280;57876;47.792;12.960;2023-09-12T01:05:34;96566.91;;;18.82;66.78
70434;BME280;57876;47.792;12.960;2023-09-12T01:08:00;96557.56;;;18.83;66.35
70434;BME280;57876;47.792;12.960;2023-09-12T01:10:25;96562.22;;;18.83;66.52
70434;BME280;57876;47.792;12.960;2023-09-12T01:12:50;96552.41;;;18.82;66.48
70434;BME280;57876;47.792;12.960;2023-09-12T01:15:15;96549.34;;;18.83;66.67
70434;BME280;57876;47.792;12.960;2023-09-12T01:17:43;96552.88;;;18.84;66.57
70434;BME280;57876;47.792;12.960;2023-09-12T01:20:11;96551.25;;;18.83;66.47
70434;BME280;57876;47.792;12.960;2023-09-12T01:23:08;96551.72;;;18.85;66.58
70434;BME280;57876;47.792;12.960;2023-09-12T01:28:24;96546.94;;;18.82;66.56
70434;BME280;57876;47.792;12.960;2023-09-12T01:30:51;96541.13;;;18.83;66.57
70434;BME280;57876;47.792;12.960;2023-09-12T01:33:16;96543.84;;;18.83;66.88
70434;BME280;57876;47.792;12.960;2023-09-12T01:35:41;96548.19;;;18.84;66.66
70434;BME280;57876;47.792;12.960;2023-09-12T01:38:07;96541.00;;;18.80;66.53
70434;BME280;57876;47.792;12.960;2023-09-12T01:43:06;96549.66;;;18.82;66.61
70434;BME280;57876;47.792;12.960;2023-09-12T01:45:31;96552.06;;;18.83;66.57
70434;BME280;57876;47.792;12.960;2023-09-12T01:47:58;96551.25;;;18.83;66.39
70434;BME280;57876;47.792;12.960;2023-09-12T01:50:23;96558.81;;;18.86;66.55
70434;BME280;57876;47.792;12.960;2023-09-12T01:52:49;96546.59;;;18.83;66.16
70434;BME280;57876;47.792;12.960;2023-09-12T01:55:16;96552.06;;;18.83;66.55
70434;BME280;57876;47.792;12.960;2023-09-12T01:57:42;96551.63;;;18.81;66.40
70434;BME280;57876;47.792;12.960;2023-09-12T02:00:07;96539.88;;;18.81;66.59
70434;BME280;57876;47.792;12.960;2023-09-12T02:02:34;96548.19;;;18.84;66.63
70434;BME280;57876;47.792;12.960;2023-09-12T02:05:19;96541.44;;;18.82;66.52
70434;BME280;57876;47.792;12.960;2023-09-12T02:07:48;96549.78;;;18.85;66.65
70434;BME280;57876;47.792;12.960;2023-09-12T02:10:13;96548.97;;;18.85;66.62
70434;BME280;57876;47.792;12.960;2023-09-12T02:12:38;96540.28;;;18.83;66.63
70434;BME280;57876;47.792;12.960;2023-09-12T02:15:03;96556.88;;;18.86;66.51
70434;BME280;57876;47.792;12.960;2023-09-12T02:17:28;96546.59;;;18.83;66.50
70434;BME280;57876;47.792;12.960;2023-09-12T02:19:56;96548.50;;;18.83;66.37
70434;BME280;57876;47.792;12.960;2023-09-12T02:22:21;96545.78;;;18.83;66.58
70434;BME280;57876;47.792;12.960;2023-09-12T02:24:48;96546.94;;;18.82;66.52
70434;BME280;57876;47.792;12.960;2023-09-12T02:27:12;96545.13;;;18.86;67.01
70434;BME280;57876;47.792;12.960;2023-09-12T02:29:39;96554.47;;;18.85;66.63
70434;BME280;57876;47.792;12.960;2023-09-12T02:32:09;96551.25;;;18.83;66.32
70434;BME280;57876;47.792;12.960;2023-09-12T02:34:44;96546.59;;;18.83;66.70
70434;BME280;57876;47.792;12.960;2023-09-12T02:37:08;96542.69;;;18.84;66.63
70434;BME280;57876;47.792;12.960;2023-09-12T02:39:33;96553.66;;;18.84;66.64
70434;BME280;57876;47.792;12.960;2023-09-12T02:42:00;96543.41;;;18.81;66.69
70434;BME280;57876;47.792;12.960;2023-09-12T02:44:27;96545.78;;;18.83;66.55
70434;BME280;57876;47.792;12.960;2023-09-12T02:46:51;96539.50;;;18.82;66.75
70434;BME280;57876;47.792;12.960;2023-09-12T02:49:16;96545.78;;;18.83;66.81
70434;BME280;57876;47.792;12.960;2023-09-12T02:51:40;96551.25;;;18.83;66.49
70434;BME280;57876;47.792;12.960;2023-09-12T02:54:06;96543.03;;;18.83;66.65
70434;BME280;57876;47.792;12.960;2023-09-12T02:56:30;96548.19;;;18.84;66.31
70434;BME280;57876;47.792;12.960;2023-09-12T02:58:54;96552.50;;;18.85;66.49
70434;BME280;57876;47.792;12.960;2023-09-12T03:01:20;96547.38;;;18.84;66.55
70434;BME280;57876;47.792;12.960;2023-09-12T03:03:49;96552.88;;;18.84;66.48
70434;BME280;57876;47.792;12.960;2023-09-12T03:06:14;96545.78;;;18.83;66.58
70434;BME280;57876;47.792;12.960;2023-09-12T03:08:39;96546.13;;;18.81;66.46
70434;BME280;57876;47.792;12.960;2023-09-12T03:11:03;96548.88;;;18.81;66.54
70434;BME280;57876;47.792;12.960;2023-09-12T03:13:31;96544.97;;;18.82;66.70
70434;BME280;57876;47.792;12.960;2023-09-12T03:15:55;96558.34;;;18.84;66.47
70434;BME280;57876;47.792;12.960;2023-09-12T03:18:20;96552.41;;;18.82;66.59
70434;BME280;57876;47.792;12.960;2023-09-12T03:20:44;96550.47;;;18.82;66.38
70434;BME280;57876;47.792;12.960;2023-09-12T03:23:09;96547.28;;;18.80;66.43
70434;BME280;57876;47.792;12.960;2023-09-12T03:25:37;96558.81;;;18.86;66.46
70434;BME280;57876;47.792;12.960;2023-09-12T03:28:02;96563.47;;;18.85;66.39
70434;BME280;57876;47.792;12.960;2023-09-12T03:30:27;96556.72;;;18.83;66.41
70434;BME280;57876;47.792;12.960;2023-09-12T03:32:52;96552.88;;;18.84;66.62
70434;BME280;57876;47.792;12.960;2023-09-12T03:38:38;96551.25;;;18.83;66.58
70434;BME280;57876;47.792;12.960;2023-09-12T03:41:02;96557.56;;;18.83;66.46
70434;BME280;57876;47.792;12.960;2023-09-12T03:43:27;96555.16;;;18.82;66.31
70434;BME280;57876;47.792;12.960;2023-09-12T03:45:51;96555.16;;;18.82;66.52
70434;BME280;57876;47.792;12.960;2023-09-12T03:48:19;96558.34;;;18.84;66.27
70434;BME280;57876;47.792;12.960;2023-09-12T03:53:56;96561.41;;;18.82;66.34
70434;BME280;57876;47.792;12.960;2023-09-12T03:56:24;96562.22;;;18.83;66.48
70434;BME280;57876;47.792;12.960;2023-09-12T03:58:48;96554.34;;;18.81;66.52
70434;BME280;57876;47.792;12.960;2023-09-12T04:01:13;96554.00;;;18.83;66.56
70434;BME280;57876;47.792;12.960;2023-09-12T04:03:38;96549.66;;;18.82;66.44
70434;BME280;57876;47.792;12.960;2023-09-12T04:06:02;96555.94;;;18.82;66.51
70434;BME280;57876;47.792;12.960;2023-09-12T04:08:27;96551.25;;;18.83;66.44
70434;BME280;57876;47.792;12.960;2023-09-12T04:10:51;96558.34;;;18.84;66.42
70434;BME280;57876;47.792;12.960;2023-09-12T04:13:16;96550.81;;;18.81;66.36
70434;BME280;57876;47.792;12.960;2023-09-12T04:15:40;96552.06;;;18.83;66.30
70434;BME280;57876;47.792;12.960;2023-09-12T04:18:07;96566.91;;;18.82;66.29
70434;BME280;57876;47.792;12.960;2023-09-12T04:20:31;96561.09;;;18.84;66.50
70434;BME280;57876;47.792;12.960;2023-09-12T04:22:56;96550.81;;;18.81;66.39
70434;BME280;57876;47.792;12.960;2023-09-12T04:25:21;96555.16;;;18.82;66.34
70434;BME280;57876;47.792;12.960;2023-09-12T04:27:46;96562.56;;;18.81;66.48
70434;BME280;57876;47.792;12.960;2023-09-12T04:30:11;96562.22;;;18.83;66.42
70434;BME280;57876;47.792;12.960;2023-09-12T04:32:36;96557.88;;;18.82;66.33
70434;BME280;57876;47.792;12.960;2023-09-12T04:35:00;96556.31;;;18.81;66.52
70434;BME280;57876;47.792;12.960;2023-09-12T04:37:24;96563.72;;;18.80;66.61
70434;BME280;57876;47.792;12.960;2023-09-12T04:39:52;96561.41;;;18.82;66.49
70434;BME280;57876;47.792;12.960;2023-09-12T04:42:33;96554.69;;;18.80;66.70
70434;BME280;57876;47.792;12.960;2023-09-12T04:44:57;96563.84;;;18.84;66.37
70434;BME280;57876;47.792;12.960;2023-09-12T04:47:22;96556.31;;;18.81;66.50
70434;BME280;57876;47.792;12.960;2023-09-12T04:49:46;96554.00;;;18.83;66.23
70434;BME280;57876;47.792;12.960;2023-09-12T04:52:14;96555.16;;;18.82;66.74
70434;BME280;57876;47.792;12.960;2023-09-12T04:54:40;96557.56;;;18.83;66.24
70434;BME280;57876;47.792;12.960;2023-09-12T04:57:07;96556.72;;;18.83;66.37
70434;BME280;57876;47.792;12.960;2023-09-12T04:59:32;96551.16;;;18.79;66.38
70434;BME280;57876;47.792;12.960;2023-09-12T05:02:05;96559.47;;;18.83;66.52
70434;BME280;57876;47.792;12.960;2023-09-12T05:04:29;96555.16;;;18.82;66.59
70434;BME280;57876;47.792;12.960;2023-09-12T05:06:56;96555.94;;;18.82;66.52
70434;BME280;57876;47.792;12.960;2023-09-12T05:09:29;96561.78;;;18.81;66.36
70434;BME280;57876;47.792;12.960;2023-09-12T05:12:07;96564.53;;;18.81;66.62
70434;BME280;57876;47.792;12.960;2023-09-12T05:14:32;96566.56;;;18.84;66.56
70434;BME280;57876;47.792;12.960;2023-09-12T05:16:58;96575.47;;;18.81;66.43
70434;BME280;57876;47.792;12.960;2023-09-12T05:19:23;96566.09;;;18.82;66.32
70434;BME280;57876;47.792;12.960;2023-09-12T05:21:52;96579.47;;;18.83;66.58
70434;BME280;57876;47.792;12.960;2023-09-12T05:24:20;96581.06;;;18.84;66.40
70434;BME280;57876;47.792;12.960;2023-09-12T05:26:44;96575.47;;;18.81;66.29
70434;BME280;57876;47.792;12.960;2023-09-12T05:29:08;96570.44;;;18.83;66.43
70434;BME280;57876;47.792;12.960;2023-09-12T05:31:33;96567.25;;;18.81;66.55
70434;BME280;57876;47.792;12.960;2023-09-12T05:34:00;96568.16;;;18.85;66.39
70434;BME280;57876;47.792;12.960;2023-09-12T05:36:25;96555.16;;;18.82;66.49
70434;BME280;57876;47.792;12.960;2023-09-12T05:38:49;96561.09;;;18.84;66.39
70434;BME280;57876;47.792;12.960;2023-09-12T05:41:13;96553.56;;;18.81;66.52
70434;BME280;57876;47.792;12.960;2023-09-12T05:43:38;96567.69;;;18.83;66.32
70434;BME280;57876;47.792;12.960;2023-09-12T05:46:04;96562.22;;;18.83;66.43
70434;BME280;57876;47.792;12.960;2023-09-12T05:48:29;96568.38;;;18.80;66.26
70434;BME280;57876;47.792;12.960;2023-09-12T05:50:53;96569.31;;;18.84;66.55
70434;BME280;57876;47.792;12.960;2023-09-12T05:53:18;96561.78;;;18.81;66.29
70434;BME280;57876;47.792;12.960;2023-09-12T05:55:45;96564.97;;;18.83;66.55
70434;BME280;57876;47.792;12.960;2023-09-12T05:58:11;96567.69;;;18.83;66.31
70434;BME280;57876;47.792;12.960;2023-09-12T06:00:36;96566.91;;;18.82;66.46
70434;BME280;57876;47.792;12.960;2023-09-12T06:03:00;96565.78;;;18.83;66.29
70434;BME280;57876;47.792;12.960;2023-09-12T06:05:24;96580.28;;;18.84;66.53
70434;BME280;57876;47.792;12.960;2023-09-12T06:07:49;96570.44;;;18.83;66.35
70434;BME280;57876;47.792;12.960;2023-09-12T06:10:13;96573.19;;;18.83;66.37
70434;BME280;57876;47.792;12.960;2023-09-12T06:12:38;96574.78;;;18.84;66.53
70434;BME280;57876;47.792;12.960;2023-09-12T06:15:03;96570.91;;;18.85;66.44
70434;BME280;57876;47.792;12.960;2023-09-12T06:17:28;96574.78;;;18.84;66.36
70434;BME280;57876;47.792;12.960;2023-09-12T06:19:54;96572.84;;;18.84;66.22
70434;BME280;57876;47.792;12.960;2023-09-12T06:22:19;96570.91;;;18.85;66.38
70434;BME280;57876;47.792;12.960;2023-09-12T06:24:44;96576.75;;;18.83;66.57
70434;BME280;57876;47.792;12.960;2023-09-12T06:27:08;96571.59;;;18.82;66.31
70434;BME280;57876;47.792;12.960;2023-09-12T06:29:33;96575.91;;;18.83;66.42
70434;BME280;57876;47.792;12.960;2023-09-12T06:31:58;96570.78;;;18.81;66.67
70434;BME280;57876;47.792;12.960;2023-09-12T06:34:22;96573.19;;;18.83;66.64
70434;BME280;57876;47.792;12.960;2023-09-12T06:36:47;96581.84;;;18.85;66.59
70434;BME280;57876;47.792;12.960;2023-09-12T06:39:12;96581.84;;;18.85;66.40
70434;BME280;57876;47.792;12.960;2023-09-12T06:41:36;96585.75;;;18.84;66.48
70434;BME280;57876;47.792;12.960;2023-09-12T06:44:01;96587.69;;;18.83;66.38
70434;BME280;57876;47.792;12.960;2023-09-12T06:46:27;96587.34;;;18.85;66.58
70434;BME280;57876;47.792;12.960;2023-09-12T06:48:51;96590.44;;;18.83;66.48
70434;BME280;57876;47.792;12.960;2023-09-12T06:51:39;96593.63;;;18.85;66.41
70434;BME280;57876;47.792;12.960;2023-09-12T06:54:12;96592.81;;;18.85;66.26
70434;BME280;57876;47.792;12.960;2023-09-12T06:56:39;96590.44;;;18.83;66.47
70434;BME280;57876;47.792;12.960;2023-09-12T06:59:06;96586.53;;;18.84;66.59
70434;BME280;57876;47.792;12.960;2023-09-12T07:01:31;96594.75;;;18.84;66.59
70434;BME280;57876;47.792;12.960;2023-09-12T07:03:55;96596.72;;;18.84;66.43
70434;BME280;57876;47.792;12.960;2023-09-12T07:06:20;96590.44;;;18.83;66.51
70434;BME280;57876;47.792;12.960;2023-09-12T07:08:44;96593.50;;;18.82;66.50
70434;BME280;57876;47.792;12.960;2023-09-12T07:11:18;96583.34;;;18.82;66.46
70434;BME280;57876;47.792;12.960;2023-09-12T07:13:43;96594.31;;;18.82;66.57
70434;BME280;57876;47.792;12.960;2023-09-12T07:16:20;96595.56;;;18.85;66.68
70434;BME280;57876;47.792;12.960;2023-09-12T07:18:44;96585.75;;;18.84;66.33
70434;BME280;57876;47.792;12.960;2023-09-12T07:21:10;96597.50;;;18.84;66.45
70434;BME280;57876;47.792;12.960;2023-09-12T07:23:36;96602.19;;;18.84;66.51
70434;BME280;57876;47.792;12.960;2023-09-12T07:26:04;96599.09;;;18.85;66.53
70434;BME280;57876;47.792;12.960;2023-09-12T07:28:30;96597.19;;;18.86;66.39
70434;BME280;57876;47.792;12.960;2023-09-12T07:30:54;96596.72;;;18.84;66.49
70434;BME280;57876;47.792;12.960;2023-09-12T07:33:19;96602.66;;;18.86;66.45
70434;BME280;57876;47.792;12.960;2023-09-12T07:35:45;96584.13;;;18.83;66.37
70434;BME280;57876;47.792;12.960;2023-09-12T07:38:12;96601.03;;;18.85;66.38
70434;BME280;57876;47.792;12.960;2023-09-12T09:52:04;96580.69;;;18.98;66.12
70434;BME280;57876;47.792;12.960;2023-09-12T09:54:29;96581.06;;;18.97;65.97
70434;BME280;57876;47.792;12.960;2023-09-12T09:56:57;96578.31;;;18.97;66.07
70434;BME280;57876;47.792;12.960;2023-09-12T09:59:23;96577.50;;;18.96;66.08
70434;BME280;57876;47.792;12.960;2023-09-12T10:02:12;96576.72;;;18.96;66.17
70434;BME280;57876;47.792;12.960;2023-09-12T10:04:41;96571.91;;;18.92;66.20
70434;BME280;57876;47.792;12.960;2023-09-12T10:07:07;96569.53;;;18.91;66.05
70434;BME280;57876;47.792;12.960;2023-09-12T10:09:34;96568.72;;;18.90;66.18
70434;BME280;57876;47.792;12.960;2023-09-12T10:11:59;96565.66;;;18.92;66.36
70434;BME280;57876;47.792;12.960;2023-09-12T10:14:26;96573.88;;;18.92;66.21
70434;BME280;57876;47.792;12.960;2023-09-12T10:16:57;96575.03;;;18.91;66.12
70434;BME280;57876;47.792;12.960;2023-09-12T10:19:56;96565.66;;;18.92;66.42
70434;BME280;57876;47.792;12.960;2023-09-12T10:25:13;96561.31;;;18.91;65.93
70434;BME280;57876;47.792;12.960;2023-09-12T10:27:37;96564.06;;;18.91;66.17
70434;BME280;57876;47.792;12.960;2023-09-12T10:30:02;96553.75;;;18.88;66.12
70434;BME280;57876;47.792;12.960;2023-09-12T10:32:30;96566.81;;;18.91;66.11
70434;BME280;57876;47.792;12.960;2023-09-12T10:34:58;96554.59;;;18.88;66.24
70434;BME280;57876;47.792;12.960;2023-09-12T10:37:25;96556.16;;;18.89;66.11
70434;BME280;57876;47.792;12.960;2023-09-12T10:43:03;96552.19;;;18.87;65.85
70434;BME280;57876;47.792;12.960;2023-09-12T10:45:30;96558.59;;;18.91;65.81
70434;BME280;57876;47.792;12.960;2023-09-12T10:47:58;96549.53;;;18.90;66.15
70434;BME280;57876;47.792;12.960;2023-09-12T10:50:23;96533.00;;;18.87;66.13
70434;BME280;57876;47.792;12.960;2023-09-12T10:52:48;96537.31;;;18.88;66.29
70434;BME280;57876;47.792;12.960;2023-09-12T10:55:17;96538.94;;;18.89;66.03
70434;BME280;57876;47.792;12.960;2023-09-12T10:58:03;96538.16;;;18.88;66.04
70434;BME280;57876;47.792;12.960;2023-09-12T11:00:28;96537.31;;;18.88;66.11
70434;BME280;57876;47.792;12.960;2023-09-12T11:02:52;96536.19;;;18.89;66.00
70434;BME280;57876;47.792;12.960;2023-09-12T11:08:01;96538.25;;;18.92;66.06
70434;BME280;57876;47.792;12.960;2023-09-12T11:10:28;96533.91;;;18.91;66.16
70434;BME280;57876;47.792;12.960;2023-09-12T11:12:56;96533.56;;;18.92;66.04
70434;BME280;57876;47.792;12.960;2023-09-12T11:15:25;96527.19;;;18.88;66.13
70434;BME280;57876;47.792;12.960;2023-09-12T11:18:00;96529.56;;;18.90;65.75
70434;BME280;57876;47.792;12.960;2023-09-12T11:20:25;96535.03;;;18.90;66.03
70434;BME280;57876;47.792;12.960;2023-09-12T11:22:49;96523.63;;;18.88;66.13
70434;BME280;57876;47.792;12.960;2023-09-12T11:25:25;96528.06;;;18.92;66.04
70434;BME280;57876;47.792;12.960;2023-09-12T11:30:14;96526.50;;;18.91;66.15
70434;BME280;57876;47.792;12.960;2023-09-12T11:32:39;96527.28;;;18.92;66.11
70434;BME280;57876;47.792;12.960;2023-09-12T11:35:07;96525.69;;;18.91;65.90
70434;BME280;57876;47.792;12.960;2023-09-12T11:37:32;96522.13;;;18.90;65.78
70434;BME280;57876;47.792;12.960;2023-09-12T11:39:57;96528.44;;;18.91;65.93
70434;BME280;57876;47.792;12.960;2023-09-12T11:42:22;96530.81;;;18.92;66.02
70434;BME280;57876;47.792;12.960;2023-09-12T11:44:49;96524.06;;;18.90;65.98
70434;BME280;57876;47.792;12.960;2023-09-12T11:47:15;96526.50;;;18.91;66.01
70434;BME280;57876;47.792;12.960;2023-09-12T11:49:40;96519.75;;;18.89;65.97
70434;BME280;57876;47.792;12.960;2023-09-12T11:52:15;96519.84;;;18.92;66.11
70434;BME280;57876;47.792;12.960;2023-09-12T11:55:04;96528.88;;;18.93;65.96
70434;BME280;57876;47.792;12.960;2023-09-12T11:57:34;96517.47;;;18.91;66.02
70434;BME280;57876;47.792;12.960;2023-09-12T12:00:25;96525.69;;;18.91;65.95
70434;BME280;57876;47.792;12.960;2023-09-12T12:02:55;96526.50;;;18.91;66.05
70434;BME280;57876;47.792;12.960;2023-09-12T12:05:21;96520.31;;;18.95;65.89
70434;BME280;57876;47.792;12.960;2023-09-12T12:08:02;96524.88;;;18.90;65.87
70434;BME280;57876;47.792;12.960;2023-09-12T12:10:27;96521.47;;;18.94;66.26
70434;BME280;57876;47.792;12.960;2023-09-12T12:12:52;96517.47;;;18.91;66.02
70434;BME280;57876;47.792;12.960;2023-09-12T12:15:17;96520.66;;;18.93;65.89
70434;BME280;57876;47.792;12.960;2023-09-12T12:17:42;96521.47;;;18.94;66.09
70434;BME280;57876;47.792;12.960;2023-09-12T12:20:18;96513.25;;;18.94;66.02
70434;BME280;57876;47.792;12.960;2023-09-12T12:22:53;96512.44;;;18.93;66.22
70434;BME280;57876;47.792;12.960;2023-09-12T12:25:21;96507.63;;;18.90;66.07
70434;BME280;57876;47.792;12.960;2023-09-12T12:27:46;96512.44;;;18.93;65.89
70434;BME280;57876;47.792;12.960;2023-09-12T12:30:34;96513.13;;;18.90;66.00
70434;BME280;57876;47.792;12.960;2023-09-12T12:33:01;96516.78;;;18.94;66.06
70434;BME280;57876;47.792;12.960;2023-09-12T12:35:27;96519.38;;;18.90;65.90
70434;BME280;57876;47.792;12.960;2023-09-12T12:37:54;96520.66;;;18.93;66.04
70434;BME280;57876;47.792;12.960;2023-09-12T12:41:01;96518.38;;;18.95;65.99
70434;BME280;57876;47.792;12.960;2023-09-12T12:43:27;96509.69;;;18.93;66.01
70434;BME280;57876;47.792;12.960;2023-09-12T12:45:56;96516.41;;;18.96;65.87
70434;BME280;57876;47.792;12.960;2023-09-12T12:48:35;96504.19;;;18.93;65.66
70434;BME280;57876;47.792;12.960;2023-09-12T12:51:24;96516.41;;;18.96;66.01
70434;BME280;57876;47.792;12.960;2023-09-12T12:54:21;96511.72;;;18.96;65.99
70434;BME280;57876;47.792;12.960;2023-09-12T12:56:46;96510.59;;;18.97;66.03
70434;BME280;57876;47.792;12.960;2023-09-12T12:59:10;96505.34;;;18.92;66.00
70434;BME280;57876;47.792;12.960;2023-09-12T13:01:36;96497.59;;;18.94;65.98
70434;BME280;57876;47.792;12.960;2023-09-12T13:04:09;96511.72;;;18.96;65.74
70434;BME280;57876;47.792;12.960;2023-09-12T13:06:34;96508.19;;;18.96;65.81
70434;BME280;57876;47.792;12.960;2023-09-12T13:09:00;96511.72;;;18.96;65.93
70434;BME280;57876;47.792;12.960;2023-09-12T13:11:28;96502.72;;;18.96;65.72
70434;BME280;57876;47.792;12.960;2023-09-12T13:13:53;96503.88;;;18.95;66.06
70434;BME280;57876;47.792;12.960;2023-09-12T13:16:17;96503.06;;;18.94;65.92
70434;BME280;57876;47.792;12.960;2023-09-12T13:18:44;96506.25;;;18.96;65.57
70434;BME280;57876;47.792;12.960;2023-09-12T13:21:19;96505.44;;;18.96;65.71
70434;BME280;57876;47.792;12.960;2023-09-12T13:23:44;96497.94;;;18.92;66.03
70434;BME280;57876;47.792;12.960;2023-09-12T13:26:09;96503.06;;;18.94;65.81
70434;BME280;57876;47.792;12.960;2023-09-12T13:28:34;96497.59;;;18.94;65.90
70434;BME280;57876;47.792;12.960;2023-09-12T13:30:58;96492.81;;;18.91;65.92
70434;BME280;57876;47.792;12.960;2023-09-12T13:33:23;96492.13;;;18.94;65.91
70434;BME280;57876;47.792;12.960;2023-09-12T13:35:49;96490.88;;;18.91;65.80
70434;BME280;57876;47.792;12.960;2023-09-12T13:38:13;96493.25;;;18.93;65.80
70434;BME280;57876;47.792;12.960;2023-09-12T13:40:39;96490.50;;;18.93;65.99
70434;BME280;57876;47.792;12.960;2023-09-12T13:43:07;96490.50;;;18.93;65.83
70434;BME280;57876;47.792;12.960;2023-09-12T13:45:32;96497.59;;;18.94;65.83
70434;BME280;57876;47.792;12.960;2023-09-12T13:47:57;96497.59;;;18.94;65.99
70434;BME280;57876;47.792;12.960;2023-09-12T13:50:23;96496.44;;;18.95;65.90
70434;BME280;57876;47.792;12.960;2023-09-12T13:52:49;96492.91;;;18.95;65.95
70434;BME280;57876;47.792;12.960;2023-09-12T13:55:14;96486.63;;;18.94;65.76
70434;BME280;57876;47.792;12.960;2023-09-12T13:57:40;96482.72;;;18.95;66.25
70434;BME280;57876;47.792;12.960;2023-09-12T14:00:08;96488.22;;;18.95;65.95
70434;BME280;57876;47.792;12.960;2023-09-12T14:02:32;96480.00;;;18.95;65.77
70434;BME280;57876;47.792;12.960;2023-09-12T14:04:56;96481.56;;;18.96;65.82
70434;BME280;57876;47.792;12.960;2023-09-12T14:07:21;96473.63;;;18.91;65.89
70434;BME280;57876;47.792;12.960;2023-09-12T14:09:45;96482.72;;;18.95;65.90
70434;BME280;57876;47.792;12.960;2023-09-12T14:12:11;96480.34;;;18.94;65.77
70434;BME280;57876;47.792;12.960;2023-09-12T14:14:35;96472.13;;;18.94;65.73
70434;BME280;57876;47.792;12.960;2023-09-12T14:17:00;96467.78;;;18.92;65.95
70434;BME280;57876;47.792;12.960;2023-09-12T14:19:24;96470.97;;;18.95;65.95
70434;BME280;57876;47.792;12.960;2023-09-12T14:21:49;96461.50;;;18.92;65.83
70434;BME280;57876;47.792;12.960;2023-09-12T14:24:14;96465.41;;;18.91;66.04
70434;BME280;57876;47.792;12.960;2023-09-12T14:26:38;96469.41;;;18.94;65.93
70434;BME280;57876;47.792;12.960;2023-09-12T14:29:02;96472.47;;;18.92;65.89
70434;BME280;57876;47.792;12.960;2023-09-12T14:31:27;96467.00;;;18.92;65.83
70434;BME280;57876;47.792;12.960;2023-09-12T14:33:52;96459.56;;;18.92;65.74
70434;BME280;57876;47.792;12.960;2023-09-12T14:36:16;96468.56;;;18.93;65.54
70434;BME280;57876;47.792;12.960;2023-09-12T14:38:41;96463.91;;;18.94;65.77
70434;BME280;57876;47.792;12.960;2023-09-12T14:41:05;96452.81;;;18.90;65.87
70434;BME280;57876;47.792;12.960;2023-09-12T14:43:30;96453.28;;;18.92;65.93
70434;BME280;57876;47.792;12.960;2023-09-12T14:45:55;96463.09;;;18.93;65.92
70434;BME280;57876;47.792;12.960;2023-09-12T14:48:19;96457.19;;;18.91;65.96
70434;BME280;57876;47.792;12.960;2023-09-12T14:50:44;96457.97;;;18.91;65.92
70434;BME280;57876;47.792;12.960;2023-09-12T14:53:13;96457.97;;;18.91;65.95
70434;BME280;57876;47.792;12.960;2023-09-12T14:55:38;96461.97;;;18.94;65.88
70434;BME280;57876;47.792;12.960;2023-09-12T14:58:02;96456.38;;;18.90;65.64
70434;BME280;57876;47.792;12.960;2023-09-12T15:00:43;96456.47;;;18.94;65.94
70434;BME280;57876;47.792;12.960;2023-09-12T15:03:08;96448.13;;;18.90;65.97
70434;BME280;57876;47.792;12.960;2023-09-12T15:05:32;96452.13;;;18.93;65.97
70434;BME280;57876;47.792;12.960;2023-09-12T15:07:57;96454.06;;;18.92;65.91
70434;BME280;57876;47.792;12.960;2023-09-12T15:10:21;96447.47;;;18.94;65.86
70434;BME280;57876;47.792;12.960;2023-09-12T15:12:49;96447.81;;;18.92;65.98
70434;BME280;57876;47.792;12.960;2023-09-12T15:15:13;96445.84;;;18.92;65.86
70434;BME280;57876;47.792;12.960;2023-09-12T15:17:38;96442.31;;;18.92;65.86
70434;BME280;57876;47.792;12.960;2023-09-12T15:20:03;96448.25;;;18.94;65.93
70434;BME280;57876;47.792;12.960;2023-09-12T15:22:30;96444.28;;;18.91;65.78